This is the latest recevied weather packets stored in our database for station/object PA1CD-13. If no packets are shown the sender has not sent any weather packets the latest 1 day(s).
| Time | Temp. | Humidity | Pressure | Rain* | Wind** | Luminosity | Snow |
|---|---|---|---|---|---|---|---|
| 1777989247 | 14.44° C | 63% | 1010.2 hPa | 0 mm | 2.24 m/s, 62° | 712 W/m² | - |
| 1777989128 | 14.44° C | 63% | 1010.3 hPa | 0 mm | 1.79 m/s, 66° | 698 W/m² | - |
| 1777989007 | 14.44° C | 63% | 1010.3 hPa | 0 mm | 1.34 m/s, 65° | 784 W/m² | - |
| 1777988886 | 13.89° C | 63% | 1010.4 hPa | 0 mm | 4.02 m/s, 73° | 774 W/m² | - |
| 1777988767 | 13.89° C | 63% | 1010.3 hPa | 0 mm | 1.79 m/s, 71° | 797 W/m² | - |
| 1777988648 | 13.89° C | 63% | 1010.4 hPa | 0 mm | 2.24 m/s, 0° | 797 W/m² | - |
| 1777988528 | 14.44° C | 63% | 1010.4 hPa | 0 mm | 2.68 m/s, 0° | 791 W/m² | - |
| 1777988406 | 14.44° C | 62% | 1010.3 hPa | 0 mm | 3.13 m/s, 58° | 728 W/m² | - |
| 1777988287 | 14.44° C | 63% | 1010.3 hPa | 0 mm | 3.13 m/s, 73° | 751 W/m² | - |
| 1777988168 | 14.44° C | 63% | 1010.3 hPa | 0 mm | 2.68 m/s, 0° | 768 W/m² | - |
| 1777988046 | 14.44° C | 63% | 1010.2 hPa | 0 mm | 1.34 m/s, 49° | 768 W/m² | - |
| 1777987927 | 14.44° C | 62% | 1010.2 hPa | 0 mm | 0.89 m/s, 0° | 781 W/m² | - |
| 1777987808 | 14.44° C | 62% | 1010.3 hPa | 0 mm | 4.02 m/s, 0° | 266 W/m² | - |
| 1777987687 | 14.44° C | 63% | 1010.3 hPa | 0 mm | 0.89 m/s, 71° | 760 W/m² | - |
| 1777987568 | 14.44° C | 63% | 1010.3 hPa | 0 mm | 2.24 m/s, 58° | 482 W/m² | - |
| 1777987447 | 14.44° C | 63% | 1010.4 hPa | 0 mm | 3.13 m/s, 45° | 724 W/m² | - |
| 1777987327 | 14.44° C | 63% | 1010.3 hPa | 0 mm | 2.24 m/s, 61° | 811 W/m² | - |
| 1777987208 | 14.44° C | 63% | 1010.4 hPa | 0 mm | 1.34 m/s, 65° | 781 W/m² | - |
| 1777987087 | 14.44° C | 63% | 1010.5 hPa | 0 mm | 0.45 m/s, 107° | 768 W/m² | - |
| 1777986967 | 14.44° C | 63% | 1010.3 hPa | 0 mm | 3.13 m/s, 0° | 772 W/m² | - |
| 1777986846 | 14.44° C | 63% | 1010.3 hPa | 0 mm | 2.68 m/s, 79° | 772 W/m² | - |
| 1777986726 | 14.44° C | 63% | 1010.4 hPa | 0 mm | 1.79 m/s, 0° | 774 W/m² | - |
| 1777986606 | 14.44° C | 62% | 1010.5 hPa | 0 mm | 3.13 m/s, 79° | 786 W/m² | - |
| 1777986487 | 14.44° C | 62% | 1010.3 hPa | 0 mm | 0.45 m/s, 75° | 774 W/m² | - |
| 1777986367 | 14.44° C | 62% | 1010.4 hPa | 0 mm | 2.68 m/s, 72° | 774 W/m² | - |
* Rain latest hour (hover to see other rain measurements)
** Current wind speed in m/s (hover to see current wind gust speed)